sensor_id;sensor_type;location;lat;lon;timestamp;P1;durP1;ratioP1;P2;durP2;ratioP2
6667;SDS011;3370;47.712;9.082;2024-02-28T00:02:43;36.20;;;22.13;;
6667;SDS011;3370;47.712;9.082;2024-02-28T00:05:29;33.00;;;21.07;;
6667;SDS011;3370;47.712;9.082;2024-02-28T00:08:16;28.47;;;20.20;;
6667;SDS011;3370;47.712;9.082;2024-02-28T00:11:04;32.83;;;20.80;;
6667;SDS011;3370;47.712;9.082;2024-02-28T00:13:50;31.70;;;20.87;;
6667;SDS011;3370;47.712;9.082;2024-02-28T00:16:39;30.43;;;21.23;;
6667;SDS011;3370;47.712;9.082;2024-02-28T00:19:26;30.53;;;21.43;;
6667;SDS011;3370;47.712;9.082;2024-02-28T00:22:12;32.93;;;18.33;;
6667;SDS011;3370;47.712;9.082;2024-02-28T00:24:59;30.83;;;19.87;;
6667;SDS011;3370;47.712;9.082;2024-02-28T00:27:46;31.00;;;19.80;;
6667;SDS011;3370;47.712;9.082;2024-02-28T00:30:32;32.50;;;19.23;;
6667;SDS011;3370;47.712;9.082;2024-02-28T00:33:18;31.17;;;19.77;;
6667;SDS011;3370;47.712;9.082;2024-02-28T00:36:04;29.00;;;18.73;;
6667;SDS011;3370;47.712;9.082;2024-02-28T00:38:50;30.67;;;19.50;;
6667;SDS011;3370;47.712;9.082;2024-02-28T00:41:37;32.87;;;20.90;;
6667;SDS011;3370;47.712;9.082;2024-02-28T00:44:23;33.87;;;21.00;;
6667;SDS011;3370;47.712;9.082;2024-02-28T00:47:09;35.80;;;20.93;;
6667;SDS011;3370;47.712;9.082;2024-02-28T00:49:55;30.60;;;19.90;;
6667;SDS011;3370;47.712;9.082;2024-02-28T00:52:41;35.60;;;22.40;;
6667;SDS011;3370;47.712;9.082;2024-02-28T00:55:27;35.67;;;21.63;;
6667;SDS011;3370;47.712;9.082;2024-02-28T00:58:14;30.83;;;18.80;;
6667;SDS011;3370;47.712;9.082;2024-02-28T01:01:00;29.37;;;19.33;;
6667;SDS011;3370;47.712;9.082;2024-02-28T01:03:46;32.33;;;20.43;;
6667;SDS011;3370;47.712;9.082;2024-02-28T01:06:32;33.00;;;22.30;;
6667;SDS011;3370;47.712;9.082;2024-02-28T01:09:18;29.53;;;20.93;;
6667;SDS011;3370;47.712;9.082;2024-02-28T01:12:04;32.47;;;22.50;;
6667;SDS011;3370;47.712;9.082;2024-02-28T01:14:50;33.47;;;20.90;;
6667;SDS011;3370;47.712;9.082;2024-02-28T01:17:37;33.03;;;21.50;;
6667;SDS011;3370;47.712;9.082;2024-02-28T01:20:23;35.83;;;22.03;;
6667;SDS011;3370;47.712;9.082;2024-02-28T01:23:09;32.73;;;21.30;;
6667;SDS011;3370;47.712;9.082;2024-02-28T01:25:55;31.90;;;20.73;;
6667;SDS011;3370;47.712;9.082;2024-02-28T01:28:41;34.30;;;20.30;;
6667;SDS011;3370;47.712;9.082;2024-02-28T01:31:28;35.37;;;21.10;;
6667;SDS011;3370;47.712;9.082;2024-02-28T01:34:14;31.40;;;19.93;;
6667;SDS011;3370;47.712;9.082;2024-02-28T01:37:00;33.50;;;19.07;;
6667;SDS011;3370;47.712;9.082;2024-02-28T01:39:46;29.50;;;18.63;;
6667;SDS011;3370;47.712;9.082;2024-02-28T01:42:32;33.70;;;18.60;;
6667;SDS011;3370;47.712;9.082;2024-02-28T01:45:18;32.03;;;19.30;;
6667;SDS011;3370;47.712;9.082;2024-02-28T01:48:06;30.50;;;19.70;;
6667;SDS011;3370;47.712;9.082;2024-02-28T01:50:55;32.37;;;20.20;;
6667;SDS011;3370;47.712;9.082;2024-02-28T01:53:42;28.97;;;19.30;;
6667;SDS011;3370;47.712;9.082;2024-02-28T01:56:30;27.00;;;17.70;;
6667;SDS011;3370;47.712;9.082;2024-02-28T01:59:16;27.13;;;18.30;;
6667;SDS011;3370;47.712;9.082;2024-02-28T02:02:03;29.30;;;19.40;;
6667;SDS011;3370;47.712;9.082;2024-02-28T02:04:50;26.60;;;18.23;;
6667;SDS011;3370;47.712;9.082;2024-02-28T02:07:38;31.30;;;19.10;;
6667;SDS011;3370;47.712;9.082;2024-02-28T02:10:27;29.30;;;18.93;;
6667;SDS011;3370;47.712;9.082;2024-02-28T02:13:14;28.40;;;18.50;;
6667;SDS011;3370;47.712;9.082;2024-02-28T02:16:00;29.57;;;19.77;;
6667;SDS011;3370;47.712;9.082;2024-02-28T02:18:46;28.93;;;18.80;;
6667;SDS011;3370;47.712;9.082;2024-02-28T02:24:50;30.07;;;19.23;;
6667;SDS011;3370;47.712;9.082;2024-02-28T02:27:36;29.23;;;18.57;;
6667;SDS011;3370;47.712;9.082;2024-02-28T02:30:22;30.17;;;19.40;;
6667;SDS011;3370;47.712;9.082;2024-02-28T02:33:08;31.70;;;18.10;;
6667;SDS011;3370;47.712;9.082;2024-02-28T02:35:54;33.93;;;18.50;;
6667;SDS011;3370;47.712;9.082;2024-02-28T02:38:40;31.60;;;18.00;;
6667;SDS011;3370;47.712;9.082;2024-02-28T02:41:26;27.50;;;16.80;;
6667;SDS011;3370;47.712;9.082;2024-02-28T02:44:13;29.03;;;17.80;;
6667;SDS011;3370;47.712;9.082;2024-02-28T02:46:59;34.03;;;19.43;;
6667;SDS011;3370;47.712;9.082;2024-02-28T02:49:45;29.77;;;18.03;;
6667;SDS011;3370;47.712;9.082;2024-02-28T02:52:31;26.50;;;16.73;;
6667;SDS011;3370;47.712;9.082;2024-02-28T02:55:17;26.40;;;17.30;;
6667;SDS011;3370;47.712;9.082;2024-02-28T02:58:03;25.60;;;17.20;;
6667;SDS011;3370;47.712;9.082;2024-02-28T03:00:49;27.10;;;17.50;;
6667;SDS011;3370;47.712;9.082;2024-02-28T03:03:35;24.73;;;16.30;;
6667;SDS011;3370;47.712;9.082;2024-02-28T03:06:22;29.37;;;18.60;;
6667;SDS011;3370;47.712;9.082;2024-02-28T03:09:09;29.60;;;18.00;;
6667;SDS011;3370;47.712;9.082;2024-02-28T03:11:55;29.30;;;17.47;;
6667;SDS011;3370;47.712;9.082;2024-02-28T03:14:41;22.63;;;16.77;;
6667;SDS011;3370;47.712;9.082;2024-02-28T03:17:27;27.40;;;17.63;;
6667;SDS011;3370;47.712;9.082;2024-02-28T03:20:14;27.70;;;17.47;;
6667;SDS011;3370;47.712;9.082;2024-02-28T03:23:00;24.40;;;16.80;;
6667;SDS011;3370;47.712;9.082;2024-02-28T03:25:46;23.67;;;15.43;;
6667;SDS011;3370;47.712;9.082;2024-02-28T03:28:32;26.30;;;16.47;;
6667;SDS011;3370;47.712;9.082;2024-02-28T03:31:18;23.60;;;16.87;;
6667;SDS011;3370;47.712;9.082;2024-02-28T03:34:04;24.20;;;15.40;;
6667;SDS011;3370;47.712;9.082;2024-02-28T03:36:50;25.10;;;16.30;;
6667;SDS011;3370;47.712;9.082;2024-02-28T03:39:37;25.30;;;16.50;;
6667;SDS011;3370;47.712;9.082;2024-02-28T03:42:23;25.70;;;16.63;;
6667;SDS011;3370;47.712;9.082;2024-02-28T03:45:10;24.20;;;16.60;;
6667;SDS011;3370;47.712;9.082;2024-02-28T03:47:56;21.83;;;15.47;;
6667;SDS011;3370;47.712;9.082;2024-02-28T03:50:42;27.73;;;16.53;;
6667;SDS011;3370;47.712;9.082;2024-02-28T03:53:28;26.00;;;16.23;;
6667;SDS011;3370;47.712;9.082;2024-02-28T03:56:21;23.40;;;16.80;;
6667;SDS011;3370;47.712;9.082;2024-02-28T03:59:11;27.30;;;17.20;;
6667;SDS011;3370;47.712;9.082;2024-02-28T04:01:57;25.93;;;16.57;;
6667;SDS011;3370;47.712;9.082;2024-02-28T04:04:43;28.40;;;18.70;;
6667;SDS011;3370;47.712;9.082;2024-02-28T04:07:29;24.23;;;16.17;;
6667;SDS011;3370;47.712;9.082;2024-02-28T04:10:15;26.37;;;16.00;;
6667;SDS011;3370;47.712;9.082;2024-02-28T04:13:01;25.83;;;16.40;;
6667;SDS011;3370;47.712;9.082;2024-02-28T04:15:47;26.30;;;18.03;;
6667;SDS011;3370;47.712;9.082;2024-02-28T04:18:33;28.20;;;18.27;;
6667;SDS011;3370;47.712;9.082;2024-02-28T04:21:19;30.43;;;18.63;;
6667;SDS011;3370;47.712;9.082;2024-02-28T04:24:06;24.77;;;16.40;;
6667;SDS011;3370;47.712;9.082;2024-02-28T04:26:54;27.00;;;15.80;;
6667;SDS011;3370;47.712;9.082;2024-02-28T04:29:40;25.47;;;16.67;;
6667;SDS011;3370;47.712;9.082;2024-02-28T04:32:26;19.27;;;14.17;;
6667;SDS011;3370;47.712;9.082;2024-02-28T04:35:12;28.03;;;16.83;;
6667;SDS011;3370;47.712;9.082;2024-02-28T04:38:00;23.83;;;15.90;;
6667;SDS011;3370;47.712;9.082;2024-02-28T04:40:47;32.40;;;18.67;;
6667;SDS011;3370;47.712;9.082;2024-02-28T04:43:33;22.90;;;16.73;;
6667;SDS011;3370;47.712;9.082;2024-02-28T04:46:19;26.60;;;17.40;;
6667;SDS011;3370;47.712;9.082;2024-02-28T04:49:05;28.77;;;18.67;;
6667;SDS011;3370;47.712;9.082;2024-02-28T04:51:51;26.87;;;18.07;;
6667;SDS011;3370;47.712;9.082;2024-02-28T04:54:39;26.10;;;17.27;;
6667;SDS011;3370;47.712;9.082;2024-02-28T04:57:26;22.33;;;15.03;;
6667;SDS011;3370;47.712;9.082;2024-02-28T05:00:12;28.50;;;17.43;;
6667;SDS011;3370;47.712;9.082;2024-02-28T05:02:58;25.83;;;16.97;;
6667;SDS011;3370;47.712;9.082;2024-02-28T05:05:44;25.10;;;15.60;;
6667;SDS011;3370;47.712;9.082;2024-02-28T05:08:30;29.60;;;17.33;;
6667;SDS011;3370;47.712;9.082;2024-02-28T05:11:16;28.37;;;17.43;;
6667;SDS011;3370;47.712;9.082;2024-02-28T05:14:03;23.23;;;16.00;;
6667;SDS011;3370;47.712;9.082;2024-02-28T05:16:49;20.83;;;14.23;;
6667;SDS011;3370;47.712;9.082;2024-02-28T05:19:35;22.30;;;15.73;;
6667;SDS011;3370;47.712;9.082;2024-02-28T05:22:21;22.73;;;15.67;;
6667;SDS011;3370;47.712;9.082;2024-02-28T05:25:07;22.33;;;15.33;;
6667;SDS011;3370;47.712;9.082;2024-02-28T05:27:53;24.23;;;15.53;;
6667;SDS011;3370;47.712;9.082;2024-02-28T05:30:39;24.73;;;14.87;;
6667;SDS011;3370;47.712;9.082;2024-02-28T05:33:26;20.30;;;13.97;;
6667;SDS011;3370;47.712;9.082;2024-02-28T05:36:12;20.57;;;14.10;;
6667;SDS011;3370;47.712;9.082;2024-02-28T05:38:59;22.60;;;14.87;;
6667;SDS011;3370;47.712;9.082;2024-02-28T05:41:50;19.40;;;14.13;;
6667;SDS011;3370;47.712;9.082;2024-02-28T05:44:36;23.37;;;14.30;;
6667;SDS011;3370;47.712;9.082;2024-02-28T05:47:23;21.77;;;13.97;;
6667;SDS011;3370;47.712;9.082;2024-02-28T05:50:09;23.53;;;14.70;;
6667;SDS011;3370;47.712;9.082;2024-02-28T05:52:55;22.77;;;14.40;;
6667;SDS011;3370;47.712;9.082;2024-02-28T05:55:41;21.77;;;14.30;;
6667;SDS011;3370;47.712;9.082;2024-02-28T05:58:27;20.93;;;14.13;;
6667;SDS011;3370;47.712;9.082;2024-02-28T06:01:17;22.80;;;14.27;;
6667;SDS011;3370;47.712;9.082;2024-02-28T06:04:03;21.10;;;14.20;;
6667;SDS011;3370;47.712;9.082;2024-02-28T06:06:50;20.43;;;13.73;;
6667;SDS011;3370;47.712;9.082;2024-02-28T06:09:36;18.53;;;13.23;;
6667;SDS011;3370;47.712;9.082;2024-02-28T06:12:23;20.50;;;14.03;;
6667;SDS011;3370;47.712;9.082;2024-02-28T06:15:09;24.20;;;15.57;;
6667;SDS011;3370;47.712;9.082;2024-02-28T06:17:56;23.77;;;16.20;;
6667;SDS011;3370;47.712;9.082;2024-02-28T06:20:45;25.77;;;16.50;;
6667;SDS011;3370;47.712;9.082;2024-02-28T06:23:31;25.03;;;16.30;;
6667;SDS011;3370;47.712;9.082;2024-02-28T06:26:17;20.50;;;14.27;;
6667;SDS011;3370;47.712;9.082;2024-02-28T06:29:03;22.60;;;14.73;;
6667;SDS011;3370;47.712;9.082;2024-02-28T06:31:51;21.63;;;14.47;;
6667;SDS011;3370;47.712;9.082;2024-02-28T06:34:37;19.10;;;13.93;;
6667;SDS011;3370;47.712;9.082;2024-02-28T06:37:23;19.60;;;12.60;;
6667;SDS011;3370;47.712;9.082;2024-02-28T06:40:09;24.10;;;15.27;;
6667;SDS011;3370;47.712;9.082;2024-02-28T06:42:56;21.80;;;13.97;;
6667;SDS011;3370;47.712;9.082;2024-02-28T06:45:42;21.40;;;14.93;;
6667;SDS011;3370;47.712;9.082;2024-02-28T06:48:28;21.33;;;14.10;;
6667;SDS011;3370;47.712;9.082;2024-02-28T06:51:16;20.00;;;14.23;;
6667;SDS011;3370;47.712;9.082;2024-02-28T06:54:03;27.07;;;16.00;;
6667;SDS011;3370;47.712;9.082;2024-02-28T06:56:49;22.10;;;15.37;;
6667;SDS011;3370;47.712;9.082;2024-02-28T06:59:35;21.83;;;15.00;;
6667;SDS011;3370;47.712;9.082;2024-02-28T07:02:21;22.03;;;15.57;;
6667;SDS011;3370;47.712;9.082;2024-02-28T07:05:07;19.17;;;14.10;;
6667;SDS011;3370;47.712;9.082;2024-02-28T07:07:54;20.10;;;13.70;;
6667;SDS011;3370;47.712;9.082;2024-02-28T07:10:40;22.60;;;14.13;;
6667;SDS011;3370;47.712;9.082;2024-02-28T07:13:28;22.10;;;14.17;;
6667;SDS011;3370;47.712;9.082;2024-02-28T07:16:15;24.27;;;15.43;;
6667;SDS011;3370;47.712;9.082;2024-02-28T07:19:01;21.87;;;13.20;;
6667;SDS011;3370;47.712;9.082;2024-02-28T07:21:47;21.57;;;14.90;;
6667;SDS011;3370;47.712;9.082;2024-02-28T07:24:33;27.23;;;15.53;;
6667;SDS011;3370;47.712;9.082;2024-02-28T07:27:21;21.93;;;14.70;;
6667;SDS011;3370;47.712;9.082;2024-02-28T07:30:09;22.00;;;14.60;;
6667;SDS011;3370;47.712;9.082;2024-02-28T07:32:56;21.90;;;15.20;;
6667;SDS011;3370;47.712;9.082;2024-02-28T07:35:45;24.83;;;16.03;;
6667;SDS011;3370;47.712;9.082;2024-02-28T07:38:32;24.90;;;14.93;;
6667;SDS011;3370;47.712;9.082;2024-02-28T07:41:18;23.00;;;13.83;;
6667;SDS011;3370;47.712;9.082;2024-02-28T07:44:05;21.00;;;14.80;;
6667;SDS011;3370;47.712;9.082;2024-02-28T07:46:52;21.43;;;14.53;;
6667;SDS011;3370;47.712;9.082;2024-02-28T07:49:38;22.60;;;14.30;;
6667;SDS011;3370;47.712;9.082;2024-02-28T07:52:24;22.07;;;14.00;;
6667;SDS011;3370;47.712;9.082;2024-02-28T07:55:10;21.00;;;14.80;;
6667;SDS011;3370;47.712;9.082;2024-02-28T07:57:56;23.60;;;14.63;;
6667;SDS011;3370;47.712;9.082;2024-02-28T08:00:42;19.17;;;14.07;;
6667;SDS011;3370;47.712;9.082;2024-02-28T08:03:30;23.60;;;15.37;;
6667;SDS011;3370;47.712;9.082;2024-02-28T08:06:16;23.40;;;15.13;;
6667;SDS011;3370;47.712;9.082;2024-02-28T08:09:02;23.57;;;16.40;;
6667;SDS011;3370;47.712;9.082;2024-02-28T08:11:49;22.10;;;15.60;;
6667;SDS011;3370;47.712;9.082;2024-02-28T08:14:35;23.20;;;14.60;;
6667;SDS011;3370;47.712;9.082;2024-02-28T08:17:21;22.10;;;15.20;;
6667;SDS011;3370;47.712;9.082;2024-02-28T08:20:07;28.20;;;15.87;;
6667;SDS011;3370;47.712;9.082;2024-02-28T08:22:54;24.43;;;15.03;;
6667;SDS011;3370;47.712;9.082;2024-02-28T08:25:42;26.00;;;15.03;;
6667;SDS011;3370;47.712;9.082;2024-02-28T08:28:28;24.03;;;15.70;;
6667;SDS011;3370;47.712;9.082;2024-02-28T08:31:14;25.20;;;15.07;;
6667;SDS011;3370;47.712;9.082;2024-02-28T08:34:01;22.20;;;15.70;;
6667;SDS011;3370;47.712;9.082;2024-02-28T08:36:49;21.80;;;14.73;;
6667;SDS011;3370;47.712;9.082;2024-02-28T08:39:37;24.00;;;15.50;;
6667;SDS011;3370;47.712;9.082;2024-02-28T08:42:26;21.60;;;14.77;;
6667;SDS011;3370;47.712;9.082;2024-02-28T08:45:12;22.43;;;15.33;;
6667;SDS011;3370;47.712;9.082;2024-02-28T08:47:59;23.80;;;15.00;;
6667;SDS011;3370;47.712;9.082;2024-02-28T08:50:46;25.03;;;15.97;;
6667;SDS011;3370;47.712;9.082;2024-02-28T08:53:32;25.90;;;16.53;;
6667;SDS011;3370;47.712;9.082;2024-02-28T08:56:19;23.97;;;16.20;;
6667;SDS011;3370;47.712;9.082;2024-02-28T08:59:05;24.27;;;14.70;;
6667;SDS011;3370;47.712;9.082;2024-02-28T09:01:51;21.17;;;14.87;;
6667;SDS011;3370;47.712;9.082;2024-02-28T09:04:37;25.73;;;15.80;;
6667;SDS011;3370;47.712;9.082;2024-02-28T09:07:23;27.17;;;17.40;;
6667;SDS011;3370;47.712;9.082;2024-02-28T09:10:09;31.00;;;18.40;;
6667;SDS011;3370;47.712;9.082;2024-02-28T09:12:56;25.57;;;16.80;;
6667;SDS011;3370;47.712;9.082;2024-02-28T09:15:42;25.30;;;17.33;;
6667;SDS011;3370;47.712;9.082;2024-02-28T09:18:28;28.47;;;17.20;;
6667;SDS011;3370;47.712;9.082;2024-02-28T09:21:14;29.93;;;17.40;;
6667;SDS011;3370;47.712;9.082;2024-02-28T09:24:00;28.30;;;17.40;;
6667;SDS011;3370;47.712;9.082;2024-02-28T09:26:47;27.17;;;18.10;;
6667;SDS011;3370;47.712;9.082;2024-02-28T09:29:33;28.33;;;18.33;;
6667;SDS011;3370;47.712;9.082;2024-02-28T09:32:19;31.10;;;17.83;;
6667;SDS011;3370;47.712;9.082;2024-02-28T09:35:05;26.90;;;17.30;;
6667;SDS011;3370;47.712;9.082;2024-02-28T09:37:52;27.50;;;17.87;;
6667;SDS011;3370;47.712;9.082;2024-02-28T09:40:38;34.60;;;17.77;;
6667;SDS011;3370;47.712;9.082;2024-02-28T09:43:26;28.97;;;18.10;;
6667;SDS011;3370;47.712;9.082;2024-02-28T09:46:18;29.97;;;17.40;;
6667;SDS011;3370;47.712;9.082;2024-02-28T09:49:05;27.83;;;16.73;;
6667;SDS011;3370;47.712;9.082;2024-02-28T09:51:51;26.70;;;17.20;;
6667;SDS011;3370;47.712;9.082;2024-02-28T09:54:37;30.40;;;20.30;;
6667;SDS011;3370;47.712;9.082;2024-02-28T09:57:23;28.40;;;17.33;;
6667;SDS011;3370;47.712;9.082;2024-02-28T10:00:14;24.80;;;16.23;;
6667;SDS011;3370;47.712;9.082;2024-02-28T10:03:04;27.60;;;17.43;;
6667;SDS011;3370;47.712;9.082;2024-02-28T10:05:51;28.10;;;17.13;;
6667;SDS011;3370;47.712;9.082;2024-02-28T10:08:38;29.57;;;18.20;;
6667;SDS011;3370;47.712;9.082;2024-02-28T10:11:24;31.50;;;18.10;;
6667;SDS011;3370;47.712;9.082;2024-02-28T10:14:10;28.20;;;17.80;;
6667;SDS011;3370;47.712;9.082;2024-02-28T10:16:56;29.70;;;16.47;;
6667;SDS011;3370;47.712;9.082;2024-02-28T10:19:42;25.27;;;17.17;;
6667;SDS011;3370;47.712;9.082;2024-02-28T10:22:33;29.63;;;19.03;;
6667;SDS011;3370;47.712;9.082;2024-02-28T10:25:22;28.80;;;18.70;;
6667;SDS011;3370;47.712;9.082;2024-02-28T10:28:09;29.67;;;19.17;;
6667;SDS011;3370;47.712;9.082;2024-02-28T10:30:55;32.40;;;18.10;;
6667;SDS011;3370;47.712;9.082;2024-02-28T10:33:42;30.50;;;19.10;;
6667;SDS011;3370;47.712;9.082;2024-02-28T10:36:29;27.23;;;16.87;;
6667;SDS011;3370;47.712;9.082;2024-02-28T10:39:17;27.75;;;18.33;;
6667;SDS011;3370;47.712;9.082;2024-02-28T10:42:05;28.57;;;18.83;;
6667;SDS011;3370;47.712;9.082;2024-02-28T10:44:54;28.60;;;18.90;;
6667;SDS011;3370;47.712;9.082;2024-02-28T10:47:45;28.70;;;17.50;;
6667;SDS011;3370;47.712;9.082;2024-02-28T10:50:33;35.70;;;19.40;;
6667;SDS011;3370;47.712;9.082;2024-02-28T10:53:22;33.00;;;20.30;;
6667;SDS011;3370;47.712;9.082;2024-02-28T10:56:17;35.93;;;18.10;;
6667;SDS011;3370;47.712;9.082;2024-02-28T10:59:06;30.40;;;19.27;;
6667;SDS011;3370;47.712;9.082;2024-02-28T11:01:54;30.03;;;19.40;;
6667;SDS011;3370;47.712;9.082;2024-02-28T11:04:40;29.80;;;19.17;;
6667;SDS011;3370;47.712;9.082;2024-02-28T11:07:27;31.50;;;20.10;;
6667;SDS011;3370;47.712;9.082;2024-02-28T11:10:13;34.60;;;20.77;;
6667;SDS011;3370;47.712;9.082;2024-02-28T11:13:00;34.42;;;20.08;;
6667;SDS011;3370;47.712;9.082;2024-02-28T11:15:46;28.27;;;19.43;;
6667;SDS011;3370;47.712;9.082;2024-02-28T11:18:32;31.97;;;20.10;;
6667;SDS011;3370;47.712;9.082;2024-02-28T11:21:18;29.53;;;19.93;;
6667;SDS011;3370;47.712;9.082;2024-02-28T11:24:05;33.13;;;20.67;;
6667;SDS011;3370;47.712;9.082;2024-02-28T11:26:52;34.00;;;20.20;;
6667;SDS011;3370;47.712;9.082;2024-02-28T11:29:38;35.40;;;20.37;;
6667;SDS011;3370;47.712;9.082;2024-02-28T11:32:25;32.00;;;19.77;;
6667;SDS011;3370;47.712;9.082;2024-02-28T11:35:12;33.17;;;19.53;;
6667;SDS011;3370;47.712;9.082;2024-02-28T11:37:59;33.43;;;21.00;;
6667;SDS011;3370;47.712;9.082;2024-02-28T11:40:49;36.93;;;22.20;;
6667;SDS011;3370;47.712;9.082;2024-02-28T11:43:35;34.07;;;21.90;;
6667;SDS011;3370;47.712;9.082;2024-02-28T11:46:21;35.07;;;21.67;;
6667;SDS011;3370;47.712;9.082;2024-02-28T11:49:09;36.50;;;22.67;;
6667;SDS011;3370;47.712;9.082;2024-02-28T11:51:55;34.30;;;21.80;;
6667;SDS011;3370;47.712;9.082;2024-02-28T11:54:41;32.67;;;21.13;;
6667;SDS011;3370;47.712;9.082;2024-02-28T11:57:28;40.57;;;23.17;;
6667;SDS011;3370;47.712;9.082;2024-02-28T12:00:16;36.37;;;21.90;;
6667;SDS011;3370;47.712;9.082;2024-02-28T12:03:05;39.97;;;22.90;;
6667;SDS011;3370;47.712;9.082;2024-02-28T12:05:51;32.87;;;22.37;;
6667;SDS011;3370;47.712;9.082;2024-02-28T12:08:38;45.03;;;22.70;;
6667;SDS011;3370;47.712;9.082;2024-02-28T12:11:25;28.43;;;19.80;;
6667;SDS011;3370;47.712;9.082;2024-02-28T12:14:13;32.90;;;21.10;;
6667;SDS011;3370;47.712;9.082;2024-02-28T12:16:59;33.50;;;23.07;;
6667;SDS011;3370;47.712;9.082;2024-02-28T12:19:46;34.63;;;20.40;;
6667;SDS011;3370;47.712;9.082;2024-02-28T12:22:32;35.27;;;21.70;;
6667;SDS011;3370;47.712;9.082;2024-02-28T12:25:18;38.10;;;24.33;;
6667;SDS011;3370;47.712;9.082;2024-02-28T12:28:05;34.08;;;21.98;;
6667;SDS011;3370;47.712;9.082;2024-02-28T12:30:52;35.07;;;22.77;;
6667;SDS011;3370;47.712;9.082;2024-02-28T12:33:39;34.20;;;23.40;;
6667;SDS011;3370;47.712;9.082;2024-02-28T12:36:25;38.13;;;23.57;;
6667;SDS011;3370;47.712;9.082;2024-02-28T12:39:12;42.30;;;22.70;;
6667;SDS011;3370;47.712;9.082;2024-02-28T12:41:58;36.93;;;24.03;;
6667;SDS011;3370;47.712;9.082;2024-02-28T12:44:44;34.67;;;23.23;;
6667;SDS011;3370;47.712;9.082;2024-02-28T12:47:31;31.17;;;21.43;;
6667;SDS011;3370;47.712;9.082;2024-02-28T12:50:17;34.27;;;22.53;;
6667;SDS011;3370;47.712;9.082;2024-02-28T12:53:03;36.17;;;21.57;;
6667;SDS011;3370;47.712;9.082;2024-02-28T12:55:51;37.97;;;23.83;;
6667;SDS011;3370;47.712;9.082;2024-02-28T12:58:37;32.65;;;22.10;;
6667;SDS011;3370;47.712;9.082;2024-02-28T13:01:23;34.23;;;23.97;;
6667;SDS011;3370;47.712;9.082;2024-02-28T13:04:10;33.90;;;23.00;;
6667;SDS011;3370;47.712;9.082;2024-02-28T13:06:56;32.07;;;21.83;;
6667;SDS011;3370;47.712;9.082;2024-02-28T13:09:42;35.23;;;22.10;;
6667;SDS011;3370;47.712;9.082;2024-02-28T13:12:28;34.63;;;22.07;;
6667;SDS011;3370;47.712;9.082;2024-02-28T13:15:14;34.30;;;21.53;;
6667;SDS011;3370;47.712;9.082;2024-02-28T13:18:00;36.37;;;23.20;;
6667;SDS011;3370;47.712;9.082;2024-02-28T13:20:54;33.87;;;23.40;;
6667;SDS011;3370;47.712;9.082;2024-02-28T13:23:40;37.67;;;22.10;;
6667;SDS011;3370;47.712;9.082;2024-02-28T13:26:26;32.90;;;21.63;;
6667;SDS011;3370;47.712;9.082;2024-02-28T13:29:12;33.23;;;22.60;;
6667;SDS011;3370;47.712;9.082;2024-02-28T13:31:58;35.87;;;23.63;;
6667;SDS011;3370;47.712;9.082;2024-02-28T13:34:45;35.67;;;23.07;;
6667;SDS011;3370;47.712;9.082;2024-02-28T13:37:31;35.63;;;23.07;;
6667;SDS011;3370;47.712;9.082;2024-02-28T13:40:18;34.40;;;21.50;;
6667;SDS011;3370;47.712;9.082;2024-02-28T13:43:04;40.43;;;23.77;;
6667;SDS011;3370;47.712;9.082;2024-02-28T13:45:51;40.20;;;23.60;;
6667;SDS011;3370;47.712;9.082;2024-02-28T13:48:37;34.80;;;22.63;;
6667;SDS011;3370;47.712;9.082;2024-02-28T13:51:23;35.00;;;22.98;;
6667;SDS011;3370;47.712;9.082;2024-02-28T13:54:09;38.33;;;22.20;;
6667;SDS011;3370;47.712;9.082;2024-02-28T13:56:55;39.07;;;24.23;;
6667;SDS011;3370;47.712;9.082;2024-02-28T13:59:41;38.37;;;24.20;;
6667;SDS011;3370;47.712;9.082;2024-02-28T14:02:28;38.33;;;23.60;;
6667;SDS011;3370;47.712;9.082;2024-02-28T14:05:14;36.10;;;23.17;;
6667;SDS011;3370;47.712;9.082;2024-02-28T14:08:00;32.10;;;20.47;;
6667;SDS011;3370;47.712;9.082;2024-02-28T14:10:49;37.50;;;21.87;;
6667;SDS011;3370;47.712;9.082;2024-02-28T14:13:35;34.23;;;22.40;;
6667;SDS011;3370;47.712;9.082;2024-02-28T14:16:21;59.90;;;24.50;;
6667;SDS011;3370;47.712;9.082;2024-02-28T14:19:07;36.47;;;22.30;;
6667;SDS011;3370;47.712;9.082;2024-02-28T14:21:53;32.87;;;21.60;;
6667;SDS011;3370;47.712;9.082;2024-02-28T14:24:39;34.60;;;22.63;;
6667;SDS011;3370;47.712;9.082;2024-02-28T14:27:25;37.83;;;22.40;;
6667;SDS011;3370;47.712;9.082;2024-02-28T14:30:15;44.10;;;22.53;;
6667;SDS011;3370;47.712;9.082;2024-02-28T14:33:01;40.53;;;23.00;;
6667;SDS011;3370;47.712;9.082;2024-02-28T14:35:48;34.77;;;22.43;;
6667;SDS011;3370;47.712;9.082;2024-02-28T14:38:34;38.33;;;25.27;;
6667;SDS011;3370;47.712;9.082;2024-02-28T14:41:20;34.35;;;23.92;;
6667;SDS011;3370;47.712;9.082;2024-02-28T14:44:07;32.30;;;22.03;;
6667;SDS011;3370;47.712;9.082;2024-02-28T14:46:53;37.00;;;22.67;;
6667;SDS011;3370;47.712;9.082;2024-02-28T14:49:39;37.20;;;24.70;;
6667;SDS011;3370;47.712;9.082;2024-02-28T14:52:25;36.17;;;23.63;;
6667;SDS011;3370;47.712;9.082;2024-02-28T14:55:11;38.83;;;24.10;;
6667;SDS011;3370;47.712;9.082;2024-02-28T14:57:57;43.00;;;24.23;;
6667;SDS011;3370;47.712;9.082;2024-02-28T15:00:45;43.57;;;26.00;;
6667;SDS011;3370;47.712;9.082;2024-02-28T15:03:32;48.27;;;27.30;;
6667;SDS011;3370;47.712;9.082;2024-02-28T15:06:18;49.20;;;26.97;;
6667;SDS011;3370;47.712;9.082;2024-02-28T15:09:04;46.53;;;28.50;;
6667;SDS011;3370;47.712;9.082;2024-02-28T15:11:50;43.42;;;25.63;;
6667;SDS011;3370;47.712;9.082;2024-02-28T15:14:38;49.47;;;28.00;;
6667;SDS011;3370;47.712;9.082;2024-02-28T15:17:24;41.40;;;26.13;;
6667;SDS011;3370;47.712;9.082;2024-02-28T15:20:10;41.53;;;25.73;;
6667;SDS011;3370;47.712;9.082;2024-02-28T15:22:57;39.03;;;23.67;;
6667;SDS011;3370;47.712;9.082;2024-02-28T15:25:43;44.30;;;26.50;;
6667;SDS011;3370;47.712;9.082;2024-02-28T15:28:29;40.90;;;24.17;;
6667;SDS011;3370;47.712;9.082;2024-02-28T15:31:15;43.43;;;25.60;;
6667;SDS011;3370;47.712;9.082;2024-02-28T15:34:01;43.87;;;26.27;;
6667;SDS011;3370;47.712;9.082;2024-02-28T15:36:48;42.80;;;25.60;;
6667;SDS011;3370;47.712;9.082;2024-02-28T15:39:34;38.60;;;24.90;;
6667;SDS011;3370;47.712;9.082;2024-02-28T15:42:20;42.40;;;24.30;;
6667;SDS011;3370;47.712;9.082;2024-02-28T15:45:06;45.73;;;25.03;;
6667;SDS011;3370;47.712;9.082;2024-02-28T15:47:53;44.23;;;25.83;;
6667;SDS011;3370;47.712;9.082;2024-02-28T15:50:39;46.57;;;26.87;;
6667;SDS011;3370;47.712;9.082;2024-02-28T15:53:25;42.23;;;26.07;;
6667;SDS011;3370;47.712;9.082;2024-02-28T15:56:11;44.10;;;25.77;;
6667;SDS011;3370;47.712;9.082;2024-02-28T15:58:57;39.90;;;25.10;;
6667;SDS011;3370;47.712;9.082;2024-02-28T16:01:43;39.57;;;26.10;;
6667;SDS011;3370;47.712;9.082;2024-02-28T16:04:29;43.00;;;28.03;;
6667;SDS011;3370;47.712;9.082;2024-02-28T16:07:15;40.03;;;24.77;;
6667;SDS011;3370;47.712;9.082;2024-02-28T16:10:02;38.67;;;24.70;;
6667;SDS011;3370;47.712;9.082;2024-02-28T16:12:48;37.90;;;22.97;;
6667;SDS011;3370;47.712;9.082;2024-02-28T16:15:35;40.90;;;25.30;;
6667;SDS011;3370;47.712;9.082;2024-02-28T16:18:21;40.80;;;26.00;;
6667;SDS011;3370;47.712;9.082;2024-02-28T16:21:07;36.77;;;23.73;;
6667;SDS011;3370;47.712;9.082;2024-02-28T16:23:54;38.47;;;25.50;;
6667;SDS011;3370;47.712;9.082;2024-02-28T16:26:40;40.90;;;25.00;;
6667;SDS011;3370;47.712;9.082;2024-02-28T16:29:26;39.87;;;24.80;;
6667;SDS011;3370;47.712;9.082;2024-02-28T16:32:12;37.93;;;24.90;;
6667;SDS011;3370;47.712;9.082;2024-02-28T16:34:58;39.00;;;24.40;;
6667;SDS011;3370;47.712;9.082;2024-02-28T16:37:45;46.57;;;26.67;;
6667;SDS011;3370;47.712;9.082;2024-02-28T16:40:32;40.90;;;26.30;;
6667;SDS011;3370;47.712;9.082;2024-02-28T16:43:18;41.87;;;26.20;;
6667;SDS011;3370;47.712;9.082;2024-02-28T16:46:04;48.43;;;27.27;;
6667;SDS011;3370;47.712;9.082;2024-02-28T16:48:50;43.47;;;25.90;;